Flight Track Log - Related Links

Times and Time Zones

All times are in EDT time to prevent confusion due to time zone crossing. See the N4891K flight status page for this flight to view local times or setup timezone preferences in your user account.


Time Position Orientation Groundspeed Altitude Reporting Facility
EDT Latitude Longitude Course Direction KTS MPH feet Rate Location/Type
Sun 02:08:00 PM 33.8058 -81.2329 44° Northeast  Level Estimated
Sun 02:09:00 PM 33.8266 -81.2086 44° Northeast  Level Estimated
Sun 02:10:00 PM 33.8475 -81.1843 44° Northeast  Level Estimated
Sun 02:11:00 PM 33.8684 -81.1600 44° Northeast  Level Estimated
Sun 02:12:00 PM 33.8893 -81.1357 44° Northeast  Level Estimated
Sun 02:13:00 PM 33.9101 -81.1114 44° Northeast  Level Estimated
Sun 02:14:00 PM 33.9310 -81.0871 44° Northeast  Level Estimated
Sun 02:15:00 PM 33.9518 -81.0627 44° Northeast  Level Estimated
Sun 02:16:00 PM 33.9726 -81.0384 44° Northeast  Level Estimated
Sun 02:17:00 PM 33.9935 -81.0140 44° Northeast  Level Estimated
Sun 02:18:00 PM 34.0143 -80.9896 44° Northeast  Level Estimated
Sun 02:19:00 PM 34.0351 -80.9652 44° Northeast  Level Estimated
Sun 02:20:00 PM 34.0560 -80.9408 44° Northeast  Level Estimated
Sun 02:21:00 PM 34.0768 -80.9164 44° Northeast  Level Estimated
Sun 02:22:00 PM 34.0976 -80.8920 44° Northeast  Level Estimated
Sun 02:23:00 PM 34.1184 -80.8675 44° Northeast  Level Estimated
Sun 02:24:00 PM 34.1392 -80.8431 44° Northeast  Level Estimated
Sun 02:25:00 PM 34.1600 -80.8186 44° Northeast  Level Estimated
Sun 02:26:00 PM 34.1808 -80.7941 44° Northeast  Level Estimated
Sun 02:27:00 PM 34.2016 -80.7696 44° Northeast  Level Estimated
Sun 02:28:00 PM 34.2224 -80.7451 44° Northeast  Level Estimated
Sun 02:29:00 PM 34.2431 -80.7206 44° Northeast  Level Estimated
Sun 02:30:00 PM 34.2639 -80.6961 44° Northeast  Level Estimated
Sun 02:31:00 PM 34.2847 -80.6715 44° Northeast  Level Estimated
Sun 02:32:00 PM 34.3055 -80.6470 44° Northeast  Level Estimated
Sun 02:33:00 PM 34.3262 -80.6224 44° Northeast  Level Estimated
Sun 02:34:00 PM 34.3470 -80.5979 44° Northeast  Level Estimated
Sun 02:35:00 PM 34.3677 -80.5733 44° Northeast  Level Estimated
Sun 02:36:00 PM 34.3885 -80.5487 44° Northeast  Level Estimated
Sun 02:37:00 PM 34.4092 -80.5241 44° Northeast  Level Estimated
Sun 02:38:00 PM 34.4299 -80.4994 44° Northeast  Level Estimated
Sun 02:39:00 PM 34.4507 -80.4748 44° Northeast  Level Estimated
Sun 02:40:00 PM 34.4714 -80.4501 44° Northeast  Level Estimated
Sun 02:41:00 PM 34.4921 -80.4255 44° Northeast  Level Estimated
Sun 02:42:00 PM 34.5128 -80.4008 44° Northeast  Level Estimated
Sun 02:43:00 PM 34.5336 -80.3761 44° Northeast  Level Estimated
Sun 02:44:00 PM 34.5543 -80.3514 44° Northeast  Level Estimated
Sun 02:45:00 PM 34.5750 -80.3267 45° Northeast  Level Estimated
Sun 02:46:00 PM 34.5957 -80.3020 45° Northeast  Level Estimated
Sun 02:47:00 PM 34.6163 -80.2773 45° Northeast  Level Estimated
Sun 02:48:00 PM 34.6370 -80.2525 45° Northeast  Level Estimated
Sun 02:49:00 PM 34.6577 -80.2278 45° Northeast  Level Estimated
Sun 02:50:00 PM 34.6784 -80.2030 45° Northeast  Level Estimated
Sun 02:51:00 PM 34.6991 -80.1782 45° Northeast  Level Estimated
Sun 02:52:00 PM 34.7197 -80.1534 45° Northeast  Level Estimated
Sun 02:53:00 PM 34.7404 -80.1286 45° Northeast  Level Estimated
Sun 02:54:00 PM 34.7611 -80.1038 45° Northeast  Level Estimated
Sun 02:55:00 PM 34.7817 -80.0789 45° Northeast  Level Estimated
Sun 02:56:00 PM 34.8023 -80.0541 45° Northeast  Level Estimated
Sun 02:57:00 PM 34.8230 -80.0292 45° Northeast  Level Estimated
Sun 02:58:00 PM 34.8436 -80.0044 45° Northeast  Level Estimated
Sun 02:59:00 PM 34.8643 -79.9795 45° Northeast  Level Estimated
Sun 03:00:00 PM 34.8849 -79.9546 45° Northeast  Level Estimated
Sun 03:01:00 PM 34.9055 -79.9297 45° Northeast  Level Estimated
Sun 03:02:00 PM 34.9261 -79.9047 45° Northeast  Level Estimated
Sun 03:03:00 PM 34.9467 -79.8798 45° Northeast  Level Estimated
Sun 03:04:00 PM 34.9673 -79.8549 45° Northeast  Level Estimated
Sun 03:05:00 PM 34.9879 -79.8299 45° Northeast  Level Estimated
Sun 03:06:00 PM 35.0085 -79.8049 45° Northeast  Level Estimated
Sun 03:07:00 PM 35.0291 -79.7800 45° Northeast  Level Estimated
Sun 03:08:00 PM 35.0497 -79.7550 45° Northeast  Level Estimated
Sun 03:09:00 PM 35.0703 -79.7299 45° Northeast  Level Estimated
Sun 03:10:00 PM 35.0908 -79.7049 45° Northeast  Level Estimated
Sun 03:11:00 PM 35.1114 -79.6799 45° Northeast  Level Estimated
Sun 03:12:00 PM 35.1320 -79.6548 45° Northeast  Level Estimated
Sun 03:13:00 PM 35.1525 -79.6298 45° Northeast  Level Estimated
Sun 03:14:00 PM 35.1731 -79.6047 45° Northeast  Level Estimated
Sun 03:15:00 PM 35.1936 -79.5796 45° Northeast  Level Estimated
Sun 03:16:00 PM 35.2141 -79.5545 45° Northeast  Level Estimated
Sun 03:17:00 PM 35.2347 -79.5294 45° Northeast  Level Estimated
Sun 03:18:00 PM 35.2552 -79.5043 45° Northeast  Level Estimated
Sun 03:19:00 PM 35.2757 -79.4792 45° Northeast  Level Estimated
Sun 03:20:00 PM 35.2963 -79.4540 45° Northeast  Level Estimated
Sun 03:21:00 PM 35.3168 -79.4289 45° Northeast  Level Estimated
Sun 03:22:00 PM 35.3373 -79.4037 45° Northeast  Level Estimated
Sun 03:23:00 PM 35.3578 -79.3785 45° Northeast  Level Estimated
Sun 03:24:00 PM 35.3783 -79.3533 45° Northeast  Level Estimated
Sun 03:25:00 PM 35.3988 -79.3281 45° Northeast  Level Estimated
Sun 03:26:00 PM 35.4193 -79.3029 45° Northeast  Level Estimated
Sun 03:27:00 PM 35.4398 -79.2776 45° Northeast  Level Estimated
Sun 03:28:00 PM 35.4603 -79.2524 45° Northeast  Level Estimated
Sun 03:29:00 PM 35.4808 -79.2271 45° Northeast  Level Estimated
Sun 03:30:00 PM 35.5012 -79.2018 45° Northeast  Level Estimated
Sun 03:31:00 PM 35.5217 -79.1765 45° Northeast  Level Estimated
Sun 03:32:00 PM 35.5421 -79.1512 45° Northeast  Level Estimated
Sun 03:33:00 PM 35.5626 -79.1259 45° Northeast  Level Estimated
Sun 03:34:00 PM 35.5824 -79.1013 45° Northeast  Level Estimated
Sun 03:35:00 PM 35.5824 -79.1013 329° Northwest  Level Estimated
Sun 03:36:00 PM 35.5824 -79.1013 329° Northwest  Level Estimated
Sun 03:37:00 PM 35.5824 -79.1013 329° Northwest  Level Estimated
Sun 03:38:00 PM 35.5824 -79.1013 329° Northwest  Level Estimated
Sun 03:39:00 PM 35.5824 -79.1013 329° Northwest  Level Estimated
Sun 03:40:00 PM 35.5824 -79.1013 329° Northwest  Level Estimated
Sun 03:41:00 PM 35.5824 -79.1013 329° Northwest  Level Estimated
Sun 03:42:00 PM 35.5824 -79.1013 329° Northwest  Level Estimated
Sun 03:43:00 PM 35.5824 -79.1013 329° Northwest  Level Estimated
Sun 03:44:00 PM 35.5824 -79.1013 329° Northwest  Level Estimated
Sun 03:45:00 PM 35.5824 -79.1013 329° Northwest  Level Estimated
Sun 03:46:00 PM 35.5824 -79.1013 329° Northwest  Level Estimated
Sun 03:47:00 PM 35.5824 -79.1013 329° Northwest  Level Estimated
Sun 03:48:00 PM 35.5824 -79.1013 329° Northwest  Level Estimated
Sun 03:49:00 PM 35.5824 -79.1013 329° Northwest  Level Estimated

Login

Don't have an account? Register now (free) for customized features, flight alerts, and more!